NO-0061 weather

Eidsberg Airstrip
Østfold, Norway

Public forecast

Using degrees Celsius for public forecast. Weather courtesy of forecast.io.

Closest aviation weather report (METAR) to Eidsberg Airstrip

Closest report is Moss Airport, Rygge, 16.9 nm (31.2 km) WSW. Retrieved 2020/07/07 03:20 UTC (11 minutes ago):

ENRY 070320Z AUTO 23005KT 9999NDV NCD 10/03 Q1003

Closest aviation forecast (TAF) to Eidsberg Airstrip

Closest forecast is Moss Airport, Rygge, 16.9 nm (31.2 km) WSW. Retrieved 2020-07-07 00:00 UTC (4 hours ago):

TAF TAF ENRY 062300Z 0700/0724 28008KT 9999 FEW040 BKN080 TEMPO 0710/0713 21010KT TEMPO 0711/0724 SHRA SCT025CB BKN030 PROB40 TEMPO 0712/0717 TS